createdAt,value
2023-04-04T00:00:40.912Z,3.98
2023-04-04T00:05:42.805Z,3.99
2023-04-04T00:10:45.485Z,4.00
2023-04-04T00:15:46.956Z,4.01
2023-04-04T00:20:48.419Z,4.00
2023-04-04T00:25:53.770Z,3.98
2023-04-04T00:30:55.610Z,3.97
2023-04-04T00:35:57.533Z,3.96
2023-04-04T00:40:59.515Z,3.91
2023-04-04T00:46:01.081Z,3.90
2023-04-04T00:51:02.854Z,3.92
2023-04-04T00:56:04.374Z,3.91
2023-04-04T01:01:06.388Z,3.86
2023-04-04T01:06:09.338Z,3.81
2023-04-04T01:11:11.310Z,3.70
2023-04-04T01:16:12.972Z,3.62
2023-04-04T01:21:17.171Z,3.59
2023-04-04T01:26:21.632Z,3.59
2023-04-04T01:31:56.138Z,3.64
2023-04-04T01:37:06.483Z,3.63
2023-04-04T01:42:10.032Z,3.59
2023-04-04T01:47:13.037Z,3.61
2023-04-04T01:52:15.082Z,3.60
2023-04-04T01:57:16.763Z,3.56
2023-04-04T02:02:18.667Z,3.53
2023-04-04T02:07:20.606Z,3.45
2023-04-04T02:12:22.332Z,3.39
2023-04-04T02:17:24.415Z,3.29
2023-04-04T02:22:26.036Z,3.21
2023-04-04T02:27:27.477Z,3.13
2023-04-04T02:32:28.981Z,3.10
2023-04-04T02:37:30.529Z,3.04
2023-04-04T02:42:33.018Z,3.00
2023-04-04T02:47:34.564Z,2.96
2023-04-04T02:52:36.668Z,2.92
2023-04-04T02:57:51.083Z,2.83
2023-04-04T03:02:57.080Z,2.76
2023-04-04T03:08:05.062Z,2.65
2023-04-04T03:13:06.794Z,2.50
2023-04-04T03:18:09.089Z,2.39
2023-04-04T03:23:10.697Z,2.30
2023-04-04T03:28:12.644Z,2.26
2023-04-04T03:33:15.182Z,2.18
2023-04-04T03:38:16.688Z,2.12
2023-04-04T03:43:18.114Z,2.12
2023-04-04T03:48:19.525Z,2.17
2023-04-04T03:53:21.100Z,2.17
2023-04-04T03:58:23.172Z,2.24
2023-04-04T04:03:26.063Z,2.35
2023-04-04T04:08:27.771Z,2.42
2023-04-04T04:13:29.251Z,2.47
2023-04-04T04:18:30.885Z,2.49
2023-04-04T04:23:32.950Z,2.51
2023-04-04T04:28:34.552Z,2.58
2023-04-04T04:33:41.232Z,2.67
2023-04-04T04:38:43.341Z,2.72
2023-04-04T04:43:45.787Z,2.71
2023-04-04T04:48:47.486Z,2.75
2023-04-04T04:53:53.371Z,2.83
2023-04-04T04:58:55.554Z,2.90
2023-04-04T05:04:00.436Z,2.94
2023-04-04T05:09:12.015Z,3.03
2023-04-04T05:14:14.103Z,3.07
2023-04-04T05:19:24.229Z,3.09
2023-04-04T05:24:30.025Z,3.13
2023-04-04T05:29:33.649Z,3.14
2023-04-04T05:34:36.962Z,3.09
2023-04-04T05:39:42.355Z,3.12
2023-04-04T05:44:45.343Z,3.19
2023-04-04T05:49:46.992Z,3.26
2023-04-04T05:54:48.598Z,3.30
2023-04-04T05:59:58.776Z,3.34
2023-04-04T06:05:00.887Z,3.35
2023-04-04T06:10:13.943Z,3.39
2023-04-04T06:15:15.565Z,3.39
2023-04-04T06:20:20.885Z,3.35
2023-04-04T06:25:24.441Z,3.41
2023-04-04T06:30:26.720Z,3.45
2023-04-04T06:35:28.247Z,3.35
2023-04-04T06:40:34.580Z,3.24
2023-04-04T06:45:36.413Z,3.17
2023-04-04T06:50:38.546Z,3.13
2023-04-04T06:55:44.088Z,3.13
2023-04-04T07:00:46.123Z,3.11
2023-04-04T07:05:47.819Z,3.08
2023-04-04T07:10:49.469Z,3.06
2023-04-04T07:15:51.052Z,3.01
2023-04-04T07:20:52.458Z,3.00
2023-04-04T07:25:53.978Z,3.14
2023-04-04T07:30:59.653Z,3.38
2023-04-04T07:36:01.971Z,3.52
2023-04-04T07:41:04.367Z,3.69
2023-04-04T07:46:06.020Z,3.85
2023-04-04T07:51:07.519Z,3.94
2023-04-04T07:56:08.997Z,4.24
2023-04-04T08:01:10.562Z,4.57
2023-04-04T08:06:12.655Z,4.89
2023-04-04T08:11:14.114Z,5.03
2023-04-04T08:16:15.650Z,5.05
2023-04-04T08:21:17.612Z,4.94
2023-04-04T08:26:19.051Z,4.91
2023-04-04T08:31:20.532Z,4.89
2023-04-04T08:36:22.472Z,4.88
2023-04-04T08:41:25.128Z,4.90
2023-04-04T08:46:27.940Z,4.95
2023-04-04T08:51:31.697Z,4.99
2023-04-04T08:56:35.834Z,4.95
2023-04-04T09:01:37.976Z,4.96
2023-04-04T09:06:40.197Z,5.06
2023-04-04T09:11:42.987Z,5.32
2023-04-04T09:16:44.450Z,5.49
2023-04-04T09:21:49.844Z,5.42
2023-04-04T09:26:53.201Z,5.06
2023-04-04T09:31:55.113Z,5.02
2023-04-04T09:36:56.949Z,5.16
2023-04-04T09:41:59.263Z,5.28
2023-04-04T09:47:30.408Z,5.13
2023-04-04T09:52:35.854Z,5.04
2023-04-04T09:57:37.984Z,5.08
2023-04-04T10:02:46.871Z,5.32
2023-04-04T10:07:48.415Z,5.55
2023-04-04T10:12:52.555Z,5.71
2023-04-04T10:17:55.402Z,5.81
2023-04-04T10:22:57.174Z,5.76
2023-04-04T10:27:58.666Z,5.88
2023-04-04T10:33:11.582Z,5.83
2023-04-04T10:38:14.267Z,5.97
2023-04-04T10:43:22.262Z,6.07
2023-04-04T10:48:26.035Z,6.09
2023-04-04T10:53:31.798Z,5.98
2023-04-04T10:58:39.652Z,5.82
2023-04-04T11:04:18.722Z,5.78
2023-04-04T11:09:56.530Z,5.68
2023-04-04T11:15:04.245Z,5.66
2023-04-04T11:20:08.677Z,5.83
2023-04-04T11:25:32.991Z,6.08
2023-04-04T11:30:44.071Z,6.26
2023-04-04T11:35:50.128Z,6.00
2023-04-04T11:40:56.485Z,5.79
2023-04-04T11:46:07.898Z,5.75
2023-04-04T11:51:11.473Z,5.96
2023-04-04T11:56:15.911Z,6.22
2023-04-04T12:01:19.109Z,6.23
2023-04-04T12:06:20.961Z,6.34
2023-04-04T12:11:25.613Z,6.50
2023-04-04T12:16:28.335Z,6.46
2023-04-04T12:21:33.258Z,6.54
2023-04-04T12:26:37.748Z,6.69
2023-04-04T12:31:42.808Z,6.78
2023-04-04T12:36:47.652Z,6.70
2023-04-04T12:41:57.794Z,6.80
2023-04-04T12:47:07.525Z,7.08
2023-04-04T12:52:33.638Z,7.21
2023-04-04T12:57:36.619Z,7.19
2023-04-04T13:02:39.029Z,7.37
2023-04-04T13:07:46.213Z,7.69
2023-04-04T13:13:02.272Z,7.36
2023-04-04T13:18:23.697Z,7.02
2023-04-04T13:23:25.403Z,9.21
2023-04-04T13:28:27.178Z,11.99
2023-04-04T13:33:28.723Z,13.24
2023-04-04T13:38:30.580Z,12.19
2023-04-04T13:43:32.052Z,11.43
2023-04-04T13:48:33.608Z,11.29
2023-04-04T13:53:35.070Z,10.61
2023-04-04T13:58:36.519Z,9.89
2023-04-04T14:03:37.972Z,9.16
2023-04-04T14:08:39.678Z,8.93
2023-04-04T14:13:41.758Z,9.14
2023-04-04T14:18:44.464Z,9.10
2023-04-04T14:23:45.926Z,8.71
2023-04-04T14:28:48.263Z,8.58
2023-04-04T14:33:49.772Z,8.58
2023-04-04T14:38:51.385Z,8.39
2023-04-04T14:43:52.875Z,8.22
2023-04-04T14:48:54.348Z,7.98
2023-04-04T14:53:59.299Z,8.00
2023-04-04T14:59:01.893Z,8.09
2023-04-04T15:04:03.698Z,8.19
2023-04-04T15:09:06.124Z,8.34
2023-04-04T15:14:07.805Z,9.35
2023-04-04T15:19:11.030Z,11.16
2023-04-04T15:24:12.433Z,11.71
2023-04-04T15:29:15.514Z,12.20
2023-04-04T15:34:16.943Z,12.09
2023-04-04T15:39:18.353Z,12.07
2023-04-04T15:44:20.067Z,11.76
2023-04-04T15:49:21.501Z,11.23
2023-04-04T15:54:23.307Z,10.73
2023-04-04T15:59:24.906Z,10.44
2023-04-04T16:04:26.518Z,10.34
2023-04-04T16:09:28.021Z,10.05
2023-04-04T16:14:29.648Z,9.74
2023-04-04T16:19:31.163Z,9.61
2023-04-04T16:24:32.646Z,9.49
2023-04-04T16:29:34.219Z,9.23
2023-04-04T16:34:38.776Z,8.79
2023-04-04T16:39:40.891Z,8.54
2023-04-04T16:44:42.312Z,8.28
2023-04-04T16:49:43.799Z,7.98
2023-04-04T16:54:45.279Z,7.67
2023-04-04T16:59:46.696Z,7.31
2023-04-04T17:04:48.200Z,7.01
2023-04-04T17:09:51.348Z,6.82
2023-04-04T17:14:53.311Z,6.73
2023-04-04T17:19:54.811Z,6.64
2023-04-04T17:24:56.264Z,6.56
2023-04-04T17:29:58.771Z,6.44
2023-04-04T17:35:00.450Z,6.33
2023-04-04T17:40:05.264Z,6.19
2023-04-04T21:18:07.769Z,4.33
2023-04-04T21:23:26.108Z,4.37
2023-04-04T21:28:45.866Z,4.38
2023-04-04T21:33:49.219Z,4.40
2023-04-04T21:39:13.947Z,4.42
2023-04-04T21:44:15.628Z,4.46
2023-04-04T21:49:17.927Z,4.44
2023-04-04T21:54:19.524Z,4.41
2023-04-04T21:59:20.956Z,4.37
2023-04-04T22:04:22.475Z,4.34
2023-04-04T22:09:25.648Z,4.34
2023-04-04T22:14:27.212Z,4.29
2023-04-04T22:19:34.609Z,4.28
2023-04-04T22:24:36.010Z,4.28
2023-04-04T22:29:37.414Z,4.29
2023-04-04T22:34:38.818Z,4.31
2023-04-04T22:39:42.642Z,4.26
2023-04-04T22:44:44.430Z,4.27
2023-04-04T22:49:48.956Z,4.29
2023-04-04T22:54:50.372Z,4.30
2023-04-04T22:59:51.810Z,4.27
2023-04-04T23:04:58.523Z,4.27
2023-04-04T23:10:00.253Z,4.26
2023-04-04T23:15:03.088Z,4.26
2023-04-04T23:20:07.756Z,4.27
2023-04-04T23:25:09.354Z,4.30
2023-04-04T23:30:11.616Z,4.30
2023-04-04T23:35:13.068Z,4.30
2023-04-04T23:40:14.576Z,4.22
2023-04-04T23:45:16.181Z,4.14
2023-04-04T23:50:19.006Z,4.15
2023-04-04T23:55:20.523Z,4.09
